sensor_id;sensor_type;location;lat;lon;timestamp;pressure;altitude;pressure_sealevel;temperature;humidity
13612;BME280;6877;51.436;6.774;2022-07-23T00:02:05;101447.78;;;15.18;93.59
13612;BME280;6877;51.436;6.774;2022-07-23T00:04:37;101441.66;;;15.16;93.75
13612;BME280;6877;51.436;6.774;2022-07-23T00:07:09;101444.34;;;15.14;93.93
13612;BME280;6877;51.436;6.774;2022-07-23T00:09:40;101442.63;;;15.13;94.34
13612;BME280;6877;51.436;6.774;2022-07-23T00:12:12;101450.53;;;15.13;94.67
13612;BME280;6877;51.436;6.774;2022-07-23T00:14:43;101453.25;;;15.10;94.23
13612;BME280;6877;51.436;6.774;2022-07-23T00:17:10;101449.72;;;15.11;94.80
13612;BME280;6877;51.436;6.774;2022-07-23T00:19:41;101456.78;;;15.09;94.48
13612;BME280;6877;51.436;6.774;2022-07-23T00:22:13;101457.69;;;15.08;94.44
13612;BME280;6877;51.436;6.774;2022-07-23T00:24:44;101438.47;;;15.04;94.09
13612;BME280;6877;51.436;6.774;2022-07-23T00:27:16;101435.91;;;15.01;94.27
13612;BME280;6877;51.436;6.774;2022-07-23T00:29:42;101443.81;;;15.01;94.17
13612;BME280;6877;51.436;6.774;2022-07-23T00:32:14;101439.41;;;15.02;94.41
13612;BME280;6877;51.436;6.774;2022-07-23T00:34:45;101425.34;;;15.01;94.42
13612;BME280;6877;51.436;6.774;2022-07-23T00:37:12;101417.41;;;15.03;94.51
13612;BME280;6877;51.436;6.774;2022-07-23T00:39:38;101427.91;;;15.04;94.45
13612;BME280;6877;51.436;6.774;2022-07-23T00:42:10;101427.91;;;15.04;94.39
13612;BME280;6877;51.436;6.774;2022-07-23T00:44:41;101439.25;;;15.08;95.09
13612;BME280;6877;51.436;6.774;2022-07-23T00:47:13;101446.31;;;15.06;94.87
13612;BME280;6877;51.436;6.774;2022-07-23T00:49:45;101447.25;;;15.03;94.60
13612;BME280;6877;51.436;6.774;2022-07-23T00:52:16;101439.41;;;15.00;94.71
13612;BME280;6877;51.436;6.774;2022-07-23T00:54:48;101444.78;;;14.97;94.87
13612;BME280;6877;51.436;6.774;2022-07-23T00:57:19;101449.25;;;14.94;94.73
13612;BME280;6877;51.436;6.774;2022-07-23T00:59:51;101445.75;;;14.93;94.85
13612;BME280;6877;51.436;6.774;2022-07-23T01:02:22;101453.81;;;14.89;94.82
13612;BME280;6877;51.436;6.774;2022-07-23T01:04:49;101459.22;;;14.82;94.84
13612;BME280;6877;51.436;6.774;2022-07-23T01:07:21;101447.00;;;14.78;94.98
13612;BME280;6877;51.436;6.774;2022-07-23T01:09:53;101442.72;;;14.76;94.92
13612;BME280;6877;51.436;6.774;2022-07-23T01:12:20;101449.78;;;14.74;95.16
13612;BME280;6877;51.436;6.774;2022-07-23T01:14:59;101445.38;;;14.74;95.38
13612;BME280;6877;51.436;6.774;2022-07-23T01:17:31;101446.22;;;14.75;95.39
13612;BME280;6877;51.436;6.774;2022-07-23T01:20:02;101440.94;;;14.75;95.40
13612;BME280;6877;51.436;6.774;2022-07-23T01:22:35;101447.13;;;14.75;95.14
13612;BME280;6877;51.436;6.774;2022-07-23T01:25:07;101448.78;;;14.78;95.37
13612;BME280;6877;51.436;6.774;2022-07-23T01:27:39;101441.72;;;14.80;95.40
13612;BME280;6877;51.436;6.774;2022-07-23T01:30:06;101449.63;;;14.80;95.30
13612;BME280;6877;51.436;6.774;2022-07-23T01:32:38;101447.00;;;14.78;95.46
13612;BME280;6877;51.436;6.774;2022-07-23T01:35:10;101441.78;;;14.77;95.41
13612;BME280;6877;51.436;6.774;2022-07-23T01:37:41;101445.34;;;14.76;95.23
13612;BME280;6877;51.436;6.774;2022-07-23T01:40:13;101445.34;;;14.76;95.31
13612;BME280;6877;51.436;6.774;2022-07-23T01:42:44;101437.47;;;14.74;95.16
13612;BME280;6877;51.436;6.774;2022-07-23T01:45:16;101439.22;;;14.74;95.18
13612;BME280;6877;51.436;6.774;2022-07-23T01:47:48;101438.41;;;14.72;95.30
13612;BME280;6877;51.436;6.774;2022-07-23T01:50:14;101435.91;;;14.66;95.37
13612;BME280;6877;51.436;6.774;2022-07-23T01:52:41;101437.72;;;14.64;95.29
13612;BME280;6877;51.436;6.774;2022-07-23T01:55:12;101434.31;;;14.60;95.52
13612;BME280;6877;51.436;6.774;2022-07-23T01:57:43;101434.38;;;14.57;95.40
13612;BME280;6877;51.436;6.774;2022-07-23T02:00:15;101435.28;;;14.56;95.63
13612;BME280;6877;51.436;6.774;2022-07-23T02:02:47;101438.81;;;14.55;95.79
13612;BME280;6877;51.436;6.774;2022-07-23T02:05:18;101435.41;;;14.51;95.68
13612;BME280;6877;51.436;6.774;2022-07-23T02:07:50;101431.06;;;14.47;95.70
13612;BME280;6877;51.436;6.774;2022-07-23T02:10:17;101437.28;;;14.43;95.57
13612;BME280;6877;51.436;6.774;2022-07-23T02:12:48;101433.94;;;14.38;95.61
13612;BME280;6877;51.436;6.774;2022-07-23T02:15:15;101429.59;;;14.34;95.75
13612;BME280;6877;51.436;6.774;2022-07-23T02:17:41;101428.81;;;14.30;95.71
13612;BME280;6877;51.436;6.774;2022-07-23T02:20:13;101428.97;;;14.24;95.84
13612;BME280;6877;51.436;6.774;2022-07-23T02:22:45;101422.00;;;14.22;96.14
13612;BME280;6877;51.436;6.774;2022-07-23T02:25:17;101423.81;;;14.20;95.99
13612;BME280;6877;51.436;6.774;2022-07-23T02:27:43;101425.59;;;14.19;96.14
13612;BME280;6877;51.436;6.774;2022-07-23T02:30:10;101430.00;;;14.17;96.35
13612;BME280;6877;51.436;6.774;2022-07-23T02:32:42;101420.34;;;14.18;96.30
13612;BME280;6877;51.436;6.774;2022-07-23T02:35:08;101414.09;;;14.22;96.45
13612;BME280;6877;51.436;6.774;2022-07-23T02:37:40;101419.28;;;14.25;96.41
13612;BME280;6877;51.436;6.774;2022-07-23T02:40:06;101424.47;;;14.28;96.37
13612;BME280;6877;51.436;6.774;2022-07-23T02:42:33;101418.28;;;14.32;96.45
13612;BME280;6877;51.436;6.774;2022-07-23T02:45:05;101418.28;;;14.30;96.34
13612;BME280;6877;51.436;6.774;2022-07-23T02:47:36;101421.84;;;14.29;96.26
13612;BME280;6877;51.436;6.774;2022-07-23T02:50:08;101420.97;;;14.29;96.16
13612;BME280;6877;51.436;6.774;2022-07-23T02:52:35;101418.41;;;14.26;96.25
13612;BME280;6877;51.436;6.774;2022-07-23T02:55:06;101418.50;;;14.21;96.12
13612;BME280;6877;51.436;6.774;2022-07-23T02:57:33;101431.84;;;14.13;95.96
13612;BME280;6877;51.436;6.774;2022-07-23T03:00:00;101433.63;;;14.11;96.18
13612;BME280;6877;51.436;6.774;2022-07-23T03:02:26;101424.16;;;14.04;96.47
13612;BME280;6877;51.436;6.774;2022-07-23T03:04:53;101429.41;;;14.04;96.32
13612;BME280;6877;51.436;6.774;2022-07-23T03:07:24;101422.44;;;14.03;96.54
13612;BME280;6877;51.436;6.774;2022-07-23T03:09:56;101421.63;;;14.00;96.44
13612;BME280;6877;51.436;6.774;2022-07-23T03:12:27;101422.59;;;13.96;96.53
13612;BME280;6877;51.436;6.774;2022-07-23T03:14:59;101421.00;;;13.88;96.60
13612;BME280;6877;51.436;6.774;2022-07-23T03:17:30;101414.09;;;13.83;96.69
13612;BME280;6877;51.436;6.774;2022-07-23T03:20:02;101418.72;;;13.72;96.77
13612;BME280;6877;51.436;6.774;2022-07-23T03:22:34;101417.94;;;13.66;96.64
13612;BME280;6877;51.436;6.774;2022-07-23T03:25:06;101426.81;;;13.61;96.96
13612;BME280;6877;51.436;6.774;2022-07-23T03:27:37;101425.06;;;13.61;97.12
13612;BME280;6877;51.436;6.774;2022-07-23T03:30:04;101424.25;;;13.58;97.19
13612;BME280;6877;51.436;6.774;2022-07-23T03:32:36;101417.28;;;13.55;97.33
13612;BME280;6877;51.436;6.774;2022-07-23T03:35:08;101424.41;;;13.50;97.44
13612;BME280;6877;51.436;6.774;2022-07-23T03:37:39;101420.09;;;13.48;97.44
13612;BME280;6877;51.436;6.774;2022-07-23T03:40:06;101427.09;;;13.47;97.33
13612;BME280;6877;51.436;6.774;2022-07-23T03:42:38;101423.69;;;13.43;97.64
13612;BME280;6877;51.436;6.774;2022-07-23T03:45:12;101424.66;;;13.38;97.55
13612;BME280;6877;51.436;6.774;2022-07-23T03:47:44;101424.72;;;13.35;97.31
13612;BME280;6877;51.436;6.774;2022-07-23T03:50:10;101420.38;;;13.32;97.47
13612;BME280;6877;51.436;6.774;2022-07-23T03:52:42;101423.00;;;13.34;97.62
13612;BME280;6877;51.436;6.774;2022-07-23T03:55:14;101428.25;;;13.34;97.81
13612;BME280;6877;51.436;6.774;2022-07-23T03:57:40;101426.50;;;13.33;97.59
13612;BME280;6877;51.436;6.774;2022-07-23T04:00:12;101430.88;;;13.32;97.66
13612;BME280;6877;51.436;6.774;2022-07-23T04:02:39;101436.16;;;13.32;97.86
13612;BME280;6877;51.436;6.774;2022-07-23T04:05:11;101429.13;;;13.34;97.86
13612;BME280;6877;51.436;6.774;2022-07-23T04:07:43;101433.56;;;13.31;97.70
13612;BME280;6877;51.436;6.774;2022-07-23T04:10:14;101434.44;;;13.31;97.76
13612;BME280;6877;51.436;6.774;2022-07-23T04:12:46;101437.94;;;13.30;97.84
13612;BME280;6877;51.436;6.774;2022-07-23T04:15:17;101437.97;;;13.29;97.75
13612;BME280;6877;51.436;6.774;2022-07-23T04:17:48;101445.84;;;13.29;97.63
13612;BME280;6877;51.436;6.774;2022-07-23T04:20:20;101444.09;;;13.29;97.63
13612;BME280;6877;51.436;6.774;2022-07-23T04:22:51;101444.94;;;13.31;97.68
13612;BME280;6877;51.436;6.774;2022-07-23T04:25:18;101448.38;;;13.35;97.86
13612;BME280;6877;51.436;6.774;2022-07-23T04:27:49;101451.81;;;13.38;97.66
13612;BME280;6877;51.436;6.774;2022-07-23T04:30:21;101454.38;;;13.41;97.63
13612;BME280;6877;51.436;6.774;2022-07-23T04:32:52;101447.19;;;13.51;97.88
13612;BME280;6877;51.436;6.774;2022-07-23T04:35:24;101455.91;;;13.53;97.63
13612;BME280;6877;51.436;6.774;2022-07-23T04:37:55;101451.53;;;13.54;97.58
13612;BME280;6877;51.436;6.774;2022-07-23T04:40:21;101455.06;;;13.51;97.21
13612;BME280;6877;51.436;6.774;2022-07-23T04:42:48;101450.59;;;13.55;97.75
13612;BME280;6877;51.436;6.774;2022-07-23T04:45:19;101455.88;;;13.55;97.59
13612;BME280;6877;51.436;6.774;2022-07-23T04:47:51;101464.59;;;13.57;97.68
13612;BME280;6877;51.436;6.774;2022-07-23T04:50:17;101470.66;;;13.60;97.59
13612;BME280;6877;51.436;6.774;2022-07-23T04:52:52;101462.66;;;13.66;97.59
13612;BME280;6877;51.436;6.774;2022-07-23T04:55:24;101466.19;;;13.65;97.40
13612;BME280;6877;51.436;6.774;2022-07-23T04:57:55;101466.13;;;13.68;97.40
13612;BME280;6877;51.436;6.774;2022-07-23T05:00:27;101471.34;;;13.72;97.58
13612;BME280;6877;51.436;6.774;2022-07-23T05:02:58;101467.75;;;13.74;97.58
13612;BME280;6877;51.436;6.774;2022-07-23T05:05:29;101482.53;;;13.81;97.53
13612;BME280;6877;51.436;6.774;2022-07-23T05:08:01;101474.47;;;13.89;97.62
13612;BME280;6877;51.436;6.774;2022-07-23T05:10:33;101473.44;;;13.96;97.43
13612;BME280;6877;51.436;6.774;2022-07-23T05:13:04;101481.41;;;13.93;97.35
13612;BME280;6877;51.436;6.774;2022-07-23T05:15:36;101484.94;;;13.92;97.07
13612;BME280;6877;51.436;6.774;2022-07-23T05:18:07;101482.28;;;13.94;97.12
13612;BME280;6877;51.436;6.774;2022-07-23T05:20:39;101480.53;;;13.94;97.16
13612;BME280;6877;51.436;6.774;2022-07-23T05:23:10;101487.44;;;13.98;97.13
13612;BME280;6877;51.436;6.774;2022-07-23T05:25:42;101483.88;;;14.01;97.08
13612;BME280;6877;51.436;6.774;2022-07-23T05:28:08;101497.78;;;14.06;97.06
13612;BME280;6877;51.436;6.774;2022-07-23T05:30:35;101493.38;;;14.09;97.13
13612;BME280;6877;51.436;6.774;2022-07-23T05:33:06;101498.56;;;14.12;97.07
13612;BME280;6877;51.436;6.774;2022-07-23T05:35:39;101502.84;;;14.17;96.94
13612;BME280;6877;51.436;6.774;2022-07-23T05:38:10;101501.88;;;14.21;97.06
13612;BME280;6877;51.436;6.774;2022-07-23T05:40:37;101498.31;;;14.23;96.77
13612;BME280;6877;51.436;6.774;2022-07-23T05:43:08;101500.88;;;14.26;96.76
13612;BME280;6877;51.436;6.774;2022-07-23T05:45:40;101499.97;;;14.29;96.76
13612;BME280;6877;51.436;6.774;2022-07-23T05:48:11;101500.69;;;14.35;96.75
13612;BME280;6877;51.436;6.774;2022-07-23T05:50:43;101497.06;;;14.41;96.43
13612;BME280;6877;51.436;6.774;2022-07-23T05:53:14;101503.06;;;14.46;96.47
13612;BME280;6877;51.436;6.774;2022-07-23T05:55:41;101503.00;;;14.51;96.17
13612;BME280;6877;51.436;6.774;2022-07-23T05:58:12;101508.22;;;14.52;96.00
13612;BME280;6877;51.436;6.774;2022-07-23T06:00:39;101508.94;;;14.59;96.18
13612;BME280;6877;51.436;6.774;2022-07-23T06:03:10;101508.84;;;14.64;96.00
13612;BME280;6877;51.436;6.774;2022-07-23T06:05:42;101518.41;;;14.68;95.74
13612;BME280;6877;51.436;6.774;2022-07-23T06:08:08;101514.72;;;14.75;95.99
13612;BME280;6877;51.436;6.774;2022-07-23T06:10:39;101518.06;;;14.83;96.10
13612;BME280;6877;51.436;6.774;2022-07-23T06:13:06;101522.31;;;14.89;95.98
13612;BME280;6877;51.436;6.774;2022-07-23T06:15:32;101523.91;;;14.96;95.79
13612;BME280;6877;51.436;6.774;2022-07-23T06:18:04;101528.94;;;15.05;95.67
13612;BME280;6877;51.436;6.774;2022-07-23T06:20:35;101531.44;;;15.10;95.08
13612;BME280;6877;51.436;6.774;2022-07-23T06:23:07;101533.13;;;15.14;94.48
13612;BME280;6877;51.436;6.774;2022-07-23T06:25:34;101532.13;;;15.18;94.33
13612;BME280;6877;51.436;6.774;2022-07-23T06:28:05;101537.22;;;15.25;94.74
13612;BME280;6877;51.436;6.774;2022-07-23T06:30:37;101532.47;;;15.38;94.83
13612;BME280;6877;51.436;6.774;2022-07-23T06:33:09;101537.50;;;15.49;94.30
13612;BME280;6877;51.436;6.774;2022-07-23T06:35:40;101536.50;;;15.53;93.69
13612;BME280;6877;51.436;6.774;2022-07-23T06:38:12;101535.47;;;15.59;93.37
13612;BME280;6877;51.436;6.774;2022-07-23T06:40:39;101544.09;;;15.65;92.23
13612;BME280;6877;51.436;6.774;2022-07-23T06:43:13;101541.31;;;15.71;91.19
13612;BME280;6877;51.436;6.774;2022-07-23T06:45:39;101549.81;;;15.83;92.18
13612;BME280;6877;51.436;6.774;2022-07-23T06:48:11;101544.09;;;15.98;92.15
13612;BME280;6877;51.436;6.774;2022-07-23T06:50:42;101542.59;;;16.20;92.16
13612;BME280;6877;51.436;6.774;2022-07-23T06:53:14;101537.66;;;16.38;90.21
13612;BME280;6877;51.436;6.774;2022-07-23T06:55:40;101538.13;;;16.51;89.85
13612;BME280;6877;51.436;6.774;2022-07-23T06:58:13;101541.34;;;16.62;88.11
13612;BME280;6877;51.436;6.774;2022-07-23T07:00:46;101544.56;;;16.72;87.18
13612;BME280;6877;51.436;6.774;2022-07-23T07:03:12;101540.78;;;16.80;86.75
13612;BME280;6877;51.436;6.774;2022-07-23T07:05:44;101550.06;;;16.94;87.24
13612;BME280;6877;51.436;6.774;2022-07-23T07:08:11;101547.03;;;17.04;86.48
13612;BME280;6877;51.436;6.774;2022-07-23T07:10:43;101544.09;;;17.13;86.15
13612;BME280;6877;51.436;6.774;2022-07-23T07:13:14;101536.69;;;17.25;85.45
13612;BME280;6877;51.436;6.774;2022-07-23T07:15:41;101533.75;;;17.32;83.55
13612;BME280;6877;51.436;6.774;2022-07-23T07:18:07;101538.84;;;17.38;83.71
13612;BME280;6877;51.436;6.774;2022-07-23T07:20:39;101543.81;;;17.48;81.93
13612;BME280;6877;51.436;6.774;2022-07-23T07:23:10;101548.09;;;17.52;80.98
13612;BME280;6877;51.436;6.774;2022-07-23T07:25:43;101550.53;;;17.58;80.86
13612;BME280;6877;51.436;6.774;2022-07-23T07:28:14;101550.09;;;17.70;80.46
13612;BME280;6877;51.436;6.774;2022-07-23T07:30:46;101550.94;;;17.97;81.00
13612;BME280;6877;51.436;6.774;2022-07-23T07:33:17;101552.72;;;18.20;79.77
13612;BME280;6877;51.436;6.774;2022-07-23T07:35:49;101552.06;;;18.37;78.22
13612;BME280;6877;51.436;6.774;2022-07-23T07:38:20;101559.38;;;18.54;75.52
13612;BME280;6877;51.436;6.774;2022-07-23T07:40:47;101553.38;;;18.72;76.78
13612;BME280;6877;51.436;6.774;2022-07-23T07:43:18;101559.56;;;18.95;75.20
13612;BME280;6877;51.436;6.774;2022-07-23T07:45:49;101558.66;;;19.16;74.11
13612;BME280;6877;51.436;6.774;2022-07-23T07:48:21;101557.38;;;19.47;73.98
13612;BME280;6877;51.436;6.774;2022-07-23T07:50:52;101557.53;;;19.85;73.29
13612;BME280;6877;51.436;6.774;2022-07-23T07:53:24;101546.66;;;20.10;69.68
13612;BME280;6877;51.436;6.774;2022-07-23T07:55:56;101559.44;;;20.21;70.04
13612;BME280;6877;51.436;6.774;2022-07-23T07:58:27;101563.75;;;20.23;68.15
13612;BME280;6877;51.436;6.774;2022-07-23T08:00:54;101571.09;;;20.37;68.97
13612;BME280;6877;51.436;6.774;2022-07-23T08:03:26;101567.09;;;20.85;67.18
13612;BME280;6877;51.436;6.774;2022-07-23T08:05:57;101572.78;;;21.83;63.31
13612;BME280;6877;51.436;6.774;2022-07-23T08:08:29;101576.06;;;22.86;61.60
13612;BME280;6877;51.436;6.774;2022-07-23T08:11:01;101576.50;;;23.85;57.85
13612;BME280;6877;51.436;6.774;2022-07-23T08:13:32;101580.06;;;24.00;54.23
13612;BME280;6877;51.436;6.774;2022-07-23T08:16:04;101575.47;;;24.45;53.46
13612;BME280;6877;51.436;6.774;2022-07-23T08:18:35;101577.44;;;25.77;53.24
13612;BME280;6877;51.436;6.774;2022-07-23T08:21:07;101581.13;;;27.71;47.52
13612;BME280;6877;51.436;6.774;2022-07-23T08:23:39;101572.44;;;28.80;44.06
13612;BME280;6877;51.436;6.774;2022-07-23T08:26:10;101576.78;;;29.03;38.91
13612;BME280;6877;51.436;6.774;2022-07-23T08:28:42;101572.59;;;29.43;38.94
13612;BME280;6877;51.436;6.774;2022-07-23T08:31:08;101577.44;;;30.52;37.32
13612;BME280;6877;51.436;6.774;2022-07-23T08:33:42;101593.81;;;31.86;33.98
13612;BME280;6877;51.436;6.774;2022-07-23T08:36:13;101584.44;;;32.83;32.19
13612;BME280;6877;51.436;6.774;2022-07-23T08:38:40;101589.53;;;34.02;30.55
13612;BME280;6877;51.436;6.774;2022-07-23T08:41:07;101582.38;;;35.02;27.59
13612;BME280;6877;51.436;6.774;2022-07-23T08:43:40;101590.69;;;36.07;28.05
13612;BME280;6877;51.436;6.774;2022-07-23T08:46:06;101595.91;;;36.87;26.28
13612;BME280;6877;51.436;6.774;2022-07-23T08:48:38;101584.28;;;37.92;25.07
13612;BME280;6877;51.436;6.774;2022-07-23T08:51:09;101591.50;;;38.29;23.86
13612;BME280;6877;51.436;6.774;2022-07-23T08:53:42;101585.06;;;38.52;23.70
13612;BME280;6877;51.436;6.774;2022-07-23T08:56:13;101582.44;;;38.94;23.27
13612;BME280;6877;51.436;6.774;2022-07-23T08:58:45;101581.03;;;39.05;22.18
13612;BME280;6877;51.436;6.774;2022-07-23T09:01:16;101578.47;;;39.47;21.68
13612;BME280;6877;51.436;6.774;2022-07-23T09:03:48;101579.72;;;39.72;20.60
13612;BME280;6877;51.436;6.774;2022-07-23T09:06:19;101577.97;;;39.65;21.17
13612;BME280;6877;51.436;6.774;2022-07-23T09:08:51;101584.00;;;38.16;20.89
13612;BME280;6877;51.436;6.774;2022-07-23T09:11:22;101590.19;;;36.74;22.26
13612;BME280;6877;51.436;6.774;2022-07-23T09:13:54;101583.44;;;35.66;22.94
13612;BME280;6877;51.436;6.774;2022-07-23T09:16:31;101587.09;;;35.90;23.79
13612;BME280;6877;51.436;6.774;2022-07-23T09:19:04;101589.47;;;36.80;22.38
13612;BME280;6877;51.436;6.774;2022-07-23T09:21:37;101585.00;;;37.33;21.70
13612;BME280;6877;51.436;6.774;2022-07-23T09:24:12;101583.28;;;37.70;21.12
13612;BME280;6877;51.436;6.774;2022-07-23T09:26:47;101585.22;;;38.43;20.26
13612;BME280;6877;51.436;6.774;2022-07-23T09:29:25;101580.81;;;39.50;19.70
13612;BME280;6877;51.436;6.774;2022-07-23T09:31:59;101583.03;;;39.96;18.89
13612;BME280;6877;51.436;6.774;2022-07-23T09:34:35;101586.19;;;39.93;18.35
13612;BME280;6877;51.436;6.774;2022-07-23T09:37:15;101580.31;;;39.68;19.02
13612;BME280;6877;51.436;6.774;2022-07-23T09:39:47;101584.25;;;39.87;18.73
13612;BME280;6877;51.436;6.774;2022-07-23T09:42:21;101583.19;;;39.31;18.90
13612;BME280;6877;51.436;6.774;2022-07-23T09:44:55;101584.47;;;40.88;17.67
13612;BME280;6877;51.436;6.774;2022-07-23T09:47:24;101583.63;;;40.94;17.28
13612;BME280;6877;51.436;6.774;2022-07-23T09:55:15;101584.69;;;39.90;17.88
13612;BME280;6877;51.436;6.774;2022-07-23T09:57:47;101577.44;;;39.26;18.43
13612;BME280;6877;51.436;6.774;2022-07-23T10:00:25;101575.16;;;39.79;18.03
13612;BME280;6877;51.436;6.774;2022-07-23T10:02:57;101579.53;;;39.46;17.96
13612;BME280;6877;51.436;6.774;2022-07-23T10:05:30;101577.38;;;38.77;18.58
13612;BME280;6877;51.436;6.774;2022-07-23T10:08:02;101579.06;;;39.21;18.20
13612;BME280;6877;51.436;6.774;2022-07-23T10:10:34;101582.44;;;37.69;19.90
13612;BME280;6877;51.436;6.774;2022-07-23T10:13:05;101583.91;;;35.78;21.55
13612;BME280;6877;51.436;6.774;2022-07-23T10:16:01;101572.47;;;37.01;20.02
13612;BME280;6877;51.436;6.774;2022-07-23T10:18:33;101576.88;;;37.48;20.28
13612;BME280;6877;51.436;6.774;2022-07-23T10:21:03;101572.69;;;37.37;20.34
13612;BME280;6877;51.436;6.774;2022-07-23T10:23:45;101575.78;;;37.87;19.73
13612;BME280;6877;51.436;6.774;2022-07-23T10:29:50;101565.00;;;37.18;20.10
13612;BME280;6877;51.436;6.774;2022-07-23T10:32:31;101568.06;;;38.20;19.30
13612;BME280;6877;51.436;6.774;2022-07-23T10:35:13;101567.09;;;38.42;18.72
13612;BME280;6877;51.436;6.774;2022-07-23T10:37:54;101559.03;;;38.56;18.43
13612;BME280;6877;51.436;6.774;2022-07-23T10:40:27;101563.97;;;37.86;19.36
13612;BME280;6877;51.436;6.774;2022-07-23T10:42:59;101568.13;;;37.52;19.88
13612;BME280;6877;51.436;6.774;2022-07-23T10:45:34;101568.06;;;36.69;20.41
13612;BME280;6877;51.436;6.774;2022-07-23T10:51:14;101559.56;;;38.15;19.19
13612;BME280;6877;51.436;6.774;2022-07-23T10:59:06;101554.06;;;36.95;20.08
13612;BME280;6877;51.436;6.774;2022-07-23T11:01:38;101565.03;;;35.68;21.72
13612;BME280;6877;51.436;6.774;2022-07-23T11:04:09;101565.34;;;36.69;20.62
13612;BME280;6877;51.436;6.774;2022-07-23T11:15:09;101567.06;;;36.30;20.29
13612;BME280;6877;51.436;6.774;2022-07-23T11:20:23;101552.13;;;35.05;21.53
13612;BME280;6877;51.436;6.774;2022-07-23T11:22:57;101552.31;;;35.28;21.18
13612;BME280;6877;51.436;6.774;2022-07-23T11:25:33;101562.91;;;36.11;20.32
13612;BME280;6877;51.436;6.774;2022-07-23T11:28:16;101553.50;;;35.17;20.47
13612;BME280;6877;51.436;6.774;2022-07-23T11:30:45;101554.06;;;33.33;23.04
13612;BME280;6877;51.436;6.774;2022-07-23T11:33:18;101565.69;;;33.69;22.89
13612;BME280;6877;51.436;6.774;2022-07-23T11:35:48;101558.34;;;33.18;23.31
13612;BME280;6877;51.436;6.774;2022-07-23T11:38:22;101555.38;;;33.29;23.21
13612;BME280;6877;51.436;6.774;2022-07-23T11:40:55;101554.13;;;32.88;23.81
13612;BME280;6877;51.436;6.774;2022-07-23T11:43:29;101562.16;;;31.59;26.01
13612;BME280;6877;51.436;6.774;2022-07-23T11:46:00;101559.53;;;30.61;27.37
13612;BME280;6877;51.436;6.774;2022-07-23T11:48:29;101558.88;;;29.67;28.51
13612;BME280;6877;51.436;6.774;2022-07-23T11:51:01;101556.09;;;28.60;30.13
13612;BME280;6877;51.436;6.774;2022-07-23T11:53:34;101559.66;;;28.38;30.65
13612;BME280;6877;51.436;6.774;2022-07-23T11:56:11;101560.91;;;28.46;30.79
13612;BME280;6877;51.436;6.774;2022-07-23T11:58:54;101554.75;;;28.21;31.09
13612;BME280;6877;51.436;6.774;2022-07-23T12:01:27;101555.50;;;28.23;31.21
13612;BME280;6877;51.436;6.774;2022-07-23T12:03:59;101552.19;;;27.86;32.04
13612;BME280;6877;51.436;6.774;2022-07-23T12:06:37;101543.06;;;27.42;32.18
13612;BME280;6877;51.436;6.774;2022-07-23T12:09:10;101553.09;;;27.51;32.36
13612;BME280;6877;51.436;6.774;2022-07-23T12:12:00;101546.19;;;27.24;32.50
13612;BME280;6877;51.436;6.774;2022-07-23T12:14:32;101549.16;;;27.09;32.61
13612;BME280;6877;51.436;6.774;2022-07-23T12:17:13;101540.31;;;27.19;32.87
13612;BME280;6877;51.436;6.774;2022-07-23T12:19:39;101552.13;;;27.17;32.66
13612;BME280;6877;51.436;6.774;2022-07-23T12:22:11;101553.00;;;27.17;32.50
13612;BME280;6877;51.436;6.774;2022-07-23T12:25:13;101541.03;;;26.49;32.72
13612;BME280;6877;51.436;6.774;2022-07-23T12:27:59;101546.09;;;26.28;33.85
13612;BME280;6877;51.436;6.774;2022-07-23T12:30:38;101545.69;;;26.22;33.40
13612;BME280;6877;51.436;6.774;2022-07-23T12:33:12;101547.28;;;26.24;33.00
13612;BME280;6877;51.436;6.774;2022-07-23T12:35:43;101543.50;;;26.40;32.71
13612;BME280;6877;51.436;6.774;2022-07-23T12:38:20;101545.03;;;26.31;32.84
13612;BME280;6877;51.436;6.774;2022-07-23T12:43:26;101549.38;;;26.45;33.49
13612;BME280;6877;51.436;6.774;2022-07-23T12:46:17;101544.34;;;26.53;33.10
13612;BME280;6877;51.436;6.774;2022-07-23T12:48:54;101538.34;;;26.73;32.86
13612;BME280;6877;51.436;6.774;2022-07-23T12:51:28;101546.69;;;26.57;33.23
13612;BME280;6877;51.436;6.774;2022-07-23T12:54:03;101549.84;;;26.51;32.93
13612;BME280;6877;51.436;6.774;2022-07-23T12:56:38;101548.44;;;26.46;33.10
13612;BME280;6877;51.436;6.774;2022-07-23T12:59:14;101552.06;;;26.45;33.13
13612;BME280;6877;51.436;6.774;2022-07-23T13:01:55;101547.56;;;26.82;32.91
13612;BME280;6877;51.436;6.774;2022-07-23T13:04:29;101561.09;;;27.04;32.37
13612;BME280;6877;51.436;6.774;2022-07-23T13:07:02;101557.91;;;26.99;32.33
13612;BME280;6877;51.436;6.774;2022-07-23T13:09:34;101557.63;;;26.67;32.28
13612;BME280;6877;51.436;6.774;2022-07-23T13:12:05;101559.47;;;26.41;32.95
13612;BME280;6877;51.436;6.774;2022-07-23T13:14:37;101563.25;;;26.51;33.66
13612;BME280;6877;51.436;6.774;2022-07-23T13:17:09;101550.34;;;26.56;33.43
13612;BME280;6877;51.436;6.774;2022-07-23T13:19:40;101559.81;;;26.49;34.01
13612;BME280;6877;51.436;6.774;2022-07-23T13:22:12;101568.75;;;26.24;34.19
13612;BME280;6877;51.436;6.774;2022-07-23T13:24:43;101557.47;;;26.32;34.37
13612;BME280;6877;51.436;6.774;2022-07-23T13:27:10;101550.66;;;26.65;34.17
13612;BME280;6877;51.436;6.774;2022-07-23T13:29:41;101544.16;;;26.80;33.74
13612;BME280;6877;51.436;6.774;2022-07-23T13:32:13;101547.63;;;26.93;33.77
13612;BME280;6877;51.436;6.774;2022-07-23T13:34:44;101548.53;;;26.81;33.71
13612;BME280;6877;51.436;6.774;2022-07-23T13:37:16;101551.03;;;26.95;33.55
13612;BME280;6877;51.436;6.774;2022-07-23T13:39:47;101543.84;;;27.20;33.00
13612;BME280;6877;51.436;6.774;2022-07-23T13:42:19;101540.88;;;26.88;33.48
13612;BME280;6877;51.436;6.774;2022-07-23T13:44:45;101541.41;;;26.93;33.66
13612;BME280;6877;51.436;6.774;2022-07-23T13:47:16;101537.91;;;26.55;34.07
13612;BME280;6877;51.436;6.774;2022-07-23T13:49:48;101528.59;;;26.72;33.92
13612;BME280;6877;51.436;6.774;2022-07-23T13:52:19;101535.56;;;26.75;33.83
13612;BME280;6877;51.436;6.774;2022-07-23T13:54:51;101536.34;;;26.88;33.88